Welcome to our Virtual Airline
Sign-in:

Flight MFC6131

  • Submitted By: Ruberto Stutzer
  • Departure Airport: Hydaburg SPB (HYG)
  • Arrival Airport: Point Baker SPB (KPB)
  • Aircraft: DHC2 BEAVER (N217MM)
  • Flight Time: 00.49.45
  • Date Submitted: 2018/08/08
  • Route: FOLLOW THE TOUR FP
  • Status: Accepted
Flight Details
Gross Revenue:
(5 load / $ 52.00 per unit
$ 260.00
Fuel Cost:
(72.5748 fuel used @ 5.1 / unit)
$ 370.13

Additional Log Information:

View Log

FS[07:58] ----- Flight Opened -----
FS[07:58] Cigar Box - 1.1.4.0
FS[07:58] FS: FSX
FS[07:58] FSUIPC: v4,973
FS[07:58] Flight Number: MFC6131
FS[07:58] FS Aircraft: DHC-2A C-GSKY
FS[07:58] FS Model: DHC2
FS[07:58] FS Type: DeHavilland
FS[07:58] Departure: HYG
FS[07:58] Arrival: KPB
FS[07:58] Flight Level: 2500
FS[07:58] Flight Type: H
FS[07:58] Passengers: 5
FS[07:58] FOB: 568 lbs
FS[07:58] Gate: n/a
FS[07:58] NOTE: Parking Brake Ignored
FS[07:58] Crash Detection: Disabled
FS[07:58] Crash Detection Aircraft: Disabled
FS[07:58] Engines: 1 Piston
FS[07:58] NOTE: Boarding has started
FS[07:58] Landing Gear: Retracted
FS[07:58] Main Door Closed
FS[07:58] COM1: 128.30
FS[07:58] COM2: 127.80
FS[07:58] Transponder: 1200
FS[07:58] NAV1: 113.70
FS[07:58] NAV2: 110.60
FS[07:58] ADF1: 284.0
FS[07:58] ADF2: 240.0
FS[07:58] Navigation Mode: NAV
FS[07:59] Light Data: Beacon ON
FS[07:59] Engine 1: Started
FS[07:59] Light Data: Navigation ON
FS[07:59] Light Data: Strobe lights ON
FS[07:59] Light Data: Taxi lights ON
FS[08:00] COM1: 122.90
FS[08:00] NOTE: Pushing back
FS[08:02] Flaps: Position 1
FS[08:03] NOTE: Taxi started
FS[08:03] NOTE: ----- TAKE OFF -----
FS[08:03] GS: 56 knots
FS[08:03] TAS: 57 knots
FS[08:03] IAS: 57 knots
FS[08:03] VS: 10 fpm
FS[08:03] FOB: 567 lbs
FS[08:03] Heading: 300°
FS[08:03] Pitch: 2°
FS[08:03] Bank: 0°
FS[08:03] Aircraft Weight: 4336,87 lbs
FS[08:03] Nearest Airport: HYG
FS[08:03] Distance: 0,38 miles
FS[08:03] Runway: ???
FS[08:03] Ground Surface: Water
FS[08:03] Ground Condition: Normal
FS[08:03] NOTE: Weather Report
FS[08:03] Wind Heading: 342°
FS[08:03] Wind Speed: 1 knots
FS[08:03] OAT: 13° C
FS[08:03] TAT: 13° C
FS[08:03] Precipitation: None
FS[08:03] Dew Point: 4° C
FS[08:03] Visibility: 62 miles
FS[08:03] METAR: No METAR available for HYG.
FS[08:03] NOTE: Climb started
FS[08:03] View Mode: Virtual Cockpit
FS[08:05] Flaps: Position 0
FS[08:05] GS: 103 knots
FS[08:05] TAS: 105 knots
FS[08:05] IAS: 102 knots
FS[08:05] VS: 1267 fpm
FS[08:06] NOTE: TOC reached
FS[08:06] NOTE: Cruise started
FS[08:06] GS: 132 knots
FS[08:06] TAS: 136 knots
FS[08:06] IAS: 131 knots
FS[08:06] VS: 198 fpm
FS[08:06] FOB: 548 lbs
FS[08:06] Heading: 334°
FS[08:06] Pitch: 0°
FS[08:06] Bank: 1°
FS[08:06] Aircraft Weight: 4318,58 lbs
FS[08:12] NOTE: TOD reached
FS[08:12] NOTE: Descent started
FS[08:12] GS: 147 knots
FS[08:12] TAS: 141 knots
FS[08:12] IAS: 140 knots
FS[08:12] VS: -1315 fpm
FS[08:12] FOB: 531 lbs
FS[08:12] Heading: 275°
FS[08:12] Pitch: 5°
FS[08:12] Bank: -3°
FS[08:12] Aircraft Weight: 4301,01 lbs
FS[08:12] NOTE: On approach
FS[08:22] FS: Paused
FS[08:22] FS: Unpaused
FS[08:26] Recovery: Flight Saved
FS[08:46] FS: Paused
FS[08:46] FS: Unpaused
FS[08:46] Flaps: Position 2
FS[08:46] GS: 139 knots
FS[08:46] TAS: 136 knots
FS[08:46] IAS: 138 knots
FS[08:46] VS: 932 fpm
FS[08:47] NOTE: ----- LANDED -----
FS[08:47] Landing Rate: -545,18 fpm
FS[08:47] GS: 62 knots
FS[08:47] TAS: 56 knots
FS[08:47] IAS: 57 knots
FS[08:47] VS: -545 fpm
FS[08:47] FOB: 409 lbs
FS[08:47] Heading: 319°
FS[08:47] Pitch: 5°
FS[08:47] Bank: 0°
FS[08:47] Aircraft Weight: 4179,51 lbs
FS[08:47] Nearest Airport: KPB
FS[08:47] Distance: 0,64 miles
FS[08:47] Runway: ???
FS[08:47] Ground Surface: Water
FS[08:47] Ground Condition: Normal
FS[08:47] NOTE: Weather Report
FS[08:47] Wind Heading: 133°
FS[08:47] Wind Speed: 5 knots
FS[08:47] OAT: 0° C
FS[08:47] TAT: 1° C
FS[08:47] Precipitation: None
FS[08:47] Dew Point: -3° C
FS[08:47] Visibility: 49 miles
FS[08:47] METAR: KPBF 081053Z AUTO 32006KT 10SM CLR 23/21 A3003 RMK AO2 SLP167 T02330206KPBG 081053Z AUTO 00000KT 9SM FEW043 18/17 A2992 RMK AO2 SLP132 T01830172KPBH 081135Z AUTO 19003KT 1/2SM FG OVC003 14/14 A2995 RMK AO2 T01400140KPBI 081053Z 10003KT 10SM SCT024 27/25 A3009 RMK AO2 SLP188 T02720250KPBX 081115Z AUTO 15003KT 10SM SCT055 BKN070 OVC120 20/20 A3006 RMK AO2 LTG DSNT W T02020202
FS[08:47] View Mode: Spot Plane
FS[08:48] NOTE: Taxi started
FS[08:48] Flaps: Position 0
FS[08:49] Engine 1: Stopped
FS[08:49] Spoilers: Extended
FS[08:49] Spoilers: Retracted
FS[08:51] Gate: n/a
FS[08:51] NOTE: Flight Completed
FS[08:51] FS Aircraft: DHC-2A C-GSKY
FS[08:51] FS Model: DHC2
FS[08:51] FS Type: DeHavilland
FS[08:51] FOB: 408 lbs
FS[08:51] Fuel Used: 160 lbs
FS[08:51] Flight Time: 00:49:45
FS[08:51] Flight Time (Dawn): 00:00:00
FS[08:51] Flight Time (Day): 00:49:45
FS[08:51] Flight Time (Dusk): 00:00:00
FS[08:51] Flight Time (Night): 00:00:00
FS[08:51] Total Landings: 1
FS[08:51] MaxSim Rate: 0x
FS[08:51] Cigar Box - 1.1.4.0
FS[08:51] ----- Flight Closed -----

Comments

Commenter Comment
Ruberto Stutzer Eventless flight.

Route Map